createdAt,value
2023-02-07T00:00:20.283Z,1251.00
2023-02-07T00:01:20.226Z,1250.00
2023-02-07T00:02:20.278Z,1256.00
2023-02-07T00:03:20.156Z,1254.00
2023-02-07T00:04:20.099Z,1247.00
2023-02-07T00:05:20.069Z,1246.00
2023-02-07T00:06:20.011Z,1241.00
2023-02-07T00:07:20.018Z,1236.00
2023-02-07T00:08:20.638Z,1254.00
2023-02-07T00:09:19.905Z,1236.00
2023-02-07T00:10:19.926Z,1250.00
2023-02-07T00:11:19.845Z,1251.00
2023-02-07T00:12:19.817Z,1247.00
2023-02-07T00:13:19.752Z,1246.00
2023-02-07T00:14:19.723Z,1239.00
2023-02-07T00:15:19.700Z,1236.00
2023-02-07T00:16:19.668Z,1235.00
2023-02-07T00:17:19.626Z,1240.00
2023-02-07T00:18:19.579Z,1238.00
2023-02-07T00:19:19.534Z,1229.00
2023-02-07T00:20:19.689Z,1234.00
2023-02-07T00:21:19.483Z,1233.00
2023-02-07T00:22:19.426Z,1234.00
2023-02-07T00:23:19.403Z,1232.00
2023-02-07T00:24:19.337Z,1234.00
2023-02-07T00:25:19.326Z,1236.00
2023-02-07T00:26:19.250Z,1235.00
2023-02-07T00:27:19.223Z,1214.00
2023-02-07T00:28:21.233Z,1218.00
2023-02-07T00:29:19.130Z,1216.00
2023-02-07T00:30:19.195Z,1227.00
2023-02-07T00:31:19.143Z,1222.00
2023-02-07T00:32:19.011Z,1224.00
2023-02-07T00:33:19.010Z,1221.00
2023-02-07T00:34:18.932Z,1228.00
2023-02-07T00:35:18.915Z,1215.00
2023-02-07T00:36:18.872Z,1213.00
2023-02-07T00:37:18.828Z,1222.00
2023-02-07T00:38:19.638Z,1221.00
2023-02-07T00:39:18.731Z,1213.00
2023-02-07T00:40:18.660Z,1215.00
2023-02-07T00:41:18.853Z,1213.00
2023-02-07T00:42:18.571Z,1218.00
2023-02-07T00:43:29.024Z,1214.00
2023-02-07T00:44:19.505Z,1215.00
2023-02-07T00:45:18.452Z,1218.00
2023-02-07T00:46:18.445Z,1218.00
2023-02-07T00:47:18.376Z,1222.00
2023-02-07T00:48:18.339Z,1207.00
2023-02-07T00:49:19.166Z,1215.00
2023-02-07T00:50:18.259Z,1218.00
2023-02-07T00:51:18.236Z,1216.00
2023-02-07T00:52:18.193Z,1216.00
2023-02-07T00:53:18.135Z,1222.00
2023-02-07T00:54:18.122Z,1218.00
2023-02-07T00:55:18.069Z,1206.00
2023-02-07T00:56:18.052Z,1204.00
2023-02-07T00:57:17.995Z,1223.00
2023-02-07T00:58:17.959Z,1205.00
2023-02-07T00:59:17.932Z,1206.00
2023-02-07T01:00:17.911Z,1215.00
2023-02-07T01:01:17.889Z,1213.00
2023-02-07T01:02:17.796Z,1203.00
2023-02-07T01:03:17.766Z,1201.00
2023-02-07T01:04:17.819Z,1193.00
2023-02-07T01:05:18.699Z,1193.00
2023-02-07T01:06:17.700Z,1197.00
2023-02-07T01:07:17.605Z,1199.00
2023-02-07T01:08:17.578Z,1194.00
2023-02-07T01:09:17.532Z,1184.00
2023-02-07T01:10:17.475Z,1184.00
2023-02-07T01:11:17.459Z,1183.00
2023-02-07T01:12:17.403Z,1195.00
2023-02-07T01:13:17.378Z,1188.00
2023-02-07T01:14:17.334Z,1195.00
2023-02-07T01:15:17.287Z,1190.00
2023-02-07T01:16:17.282Z,1191.00
2023-02-07T01:17:17.212Z,1192.00
2023-02-07T01:18:17.172Z,1192.00
2023-02-07T01:19:17.139Z,1183.00
2023-02-07T01:20:17.115Z,1190.00
2023-02-07T01:21:17.052Z,1183.00
2023-02-07T01:22:17.023Z,1191.00
2023-02-07T01:23:16.982Z,1177.00
2023-02-07T01:24:16.934Z,1191.00
2023-02-07T01:25:16.889Z,1184.00
2023-02-07T01:26:16.848Z,1174.00
2023-02-07T01:27:16.809Z,1180.00
2023-02-07T01:28:16.836Z,1180.00
2023-02-07T01:29:16.744Z,1172.00
2023-02-07T01:30:16.701Z,1173.00
2023-02-07T01:31:16.776Z,1171.00
2023-02-07T01:32:16.627Z,1161.00
2023-02-07T01:33:16.581Z,1179.00
2023-02-07T01:34:16.546Z,1164.00
2023-02-07T01:35:16.508Z,1165.00
2023-02-07T01:36:17.179Z,1164.00
2023-02-07T01:37:16.406Z,1166.00
2023-02-07T01:38:16.366Z,1164.00
2023-02-07T01:39:16.325Z,1158.00
2023-02-07T01:40:16.311Z,1168.00
2023-02-07T01:41:16.270Z,1170.00
2023-02-07T01:42:16.232Z,1150.00
2023-02-07T01:43:16.192Z,1168.00
2023-02-07T01:44:16.188Z,1163.00
2023-02-07T01:45:17.677Z,1159.00
2023-02-07T01:46:16.168Z,1171.00
2023-02-07T01:47:16.165Z,1171.00
2023-02-07T01:48:15.983Z,1163.00
2023-02-07T01:49:15.892Z,1169.00
2023-02-07T01:50:15.848Z,1143.00
2023-02-07T01:51:15.827Z,1158.00
2023-02-07T01:52:15.759Z,1153.00
2023-02-07T01:53:15.700Z,1148.00
2023-02-07T01:54:15.649Z,1160.00
2023-02-07T01:55:15.647Z,1147.00
2023-02-07T01:56:30.535Z,1150.00
2023-02-07T01:57:16.532Z,1151.00
2023-02-07T01:58:15.496Z,1152.00
2023-02-07T01:59:15.466Z,1149.00
2023-02-07T02:00:15.408Z,1153.00
2023-02-07T02:01:15.382Z,1135.00
2023-02-07T02:02:15.357Z,1149.00
2023-02-07T02:03:15.286Z,1139.00
2023-02-07T02:04:15.237Z,1140.00
2023-02-07T02:05:15.190Z,1134.00
2023-02-07T02:06:15.146Z,1159.00
2023-02-07T02:07:15.109Z,1145.00
2023-02-07T02:08:15.061Z,1148.00
2023-02-07T02:09:15.065Z,1145.00
2023-02-07T02:10:14.972Z,1133.00
2023-02-07T02:11:14.925Z,1151.00
2023-02-07T02:12:14.890Z,1145.00
2023-02-07T02:13:14.831Z,1134.00
2023-02-07T02:14:14.836Z,1138.00
2023-02-07T02:15:14.758Z,1136.00
2023-02-07T02:16:14.758Z,1146.00
2023-02-07T02:17:14.685Z,1122.00
2023-02-07T02:18:14.629Z,1113.00
2023-02-07T02:19:14.563Z,1123.00
2023-02-07T02:20:15.196Z,1107.00
2023-02-07T02:21:14.499Z,1108.00
2023-02-07T02:22:14.454Z,1122.00
2023-02-07T02:23:14.432Z,1124.00
2023-02-07T02:24:14.450Z,1118.00
2023-02-07T02:25:14.333Z,1130.00
2023-02-07T02:26:14.272Z,1118.00
2023-02-07T02:27:14.244Z,1121.00
2023-02-07T02:28:14.247Z,1120.00
2023-02-07T02:29:14.153Z,1138.00
2023-02-07T02:30:14.110Z,1122.00
2023-02-07T02:31:14.099Z,1123.00
2023-02-07T02:32:14.035Z,1119.00
2023-02-07T02:33:13.976Z,1121.00
2023-02-07T02:34:13.944Z,1109.00
2023-02-07T02:35:13.903Z,1112.00
2023-02-07T02:36:13.864Z,1121.00
2023-02-07T02:37:13.810Z,1128.00
2023-02-07T02:38:13.810Z,1111.00
2023-02-07T02:39:13.726Z,1112.00
2023-02-07T02:40:13.674Z,1103.00
2023-02-07T02:41:13.640Z,1105.00
2023-02-07T02:42:13.600Z,1093.00
2023-02-07T02:43:13.574Z,1111.00
2023-02-07T02:44:13.534Z,1099.00
2023-02-07T02:45:13.484Z,1104.00
2023-02-07T02:46:13.449Z,1103.00
2023-02-07T02:47:13.416Z,1096.00
2023-02-07T02:48:13.356Z,1099.00
2023-02-07T02:49:13.323Z,1102.00
2023-02-07T02:50:13.286Z,1099.00
2023-02-07T02:51:13.245Z,1065.00
2023-02-07T02:52:13.200Z,1070.00
2023-02-07T02:53:13.188Z,1041.00
2023-02-07T02:54:13.153Z,1063.00
2023-02-07T02:55:13.091Z,1003.00
2023-02-07T02:56:13.056Z,1025.00
2023-02-07T02:57:13.007Z,997.00
2023-02-07T02:58:12.974Z,966.00
2023-02-07T02:59:12.917Z,968.00
2023-02-07T03:00:12.892Z,936.00
2023-02-07T03:01:12.849Z,942.00
2023-02-07T03:02:12.796Z,957.00
2023-02-07T03:03:12.769Z,933.00
2023-02-07T03:04:12.716Z,881.00
2023-02-07T03:05:12.736Z,872.00
2023-02-07T03:06:12.654Z,850.00
2023-02-07T03:07:12.632Z,829.00
2023-02-07T03:08:12.597Z,841.00
2023-02-07T03:09:12.541Z,858.00
2023-02-07T03:10:12.493Z,860.00
2023-02-07T03:11:12.460Z,795.00
2023-02-07T03:12:12.419Z,763.00
2023-02-07T03:13:12.394Z,719.00
2023-02-07T03:14:12.355Z,708.00
2023-02-07T03:15:12.324Z,747.00
2023-02-07T03:16:12.316Z,789.00
2023-02-07T03:17:12.245Z,782.00
2023-02-07T03:18:12.244Z,738.00
2023-02-07T03:19:12.192Z,686.00
2023-02-07T03:20:12.135Z,654.00
2023-02-07T03:21:12.716Z,644.00
2023-02-07T03:22:12.094Z,645.00
2023-02-07T03:23:12.050Z,662.00
2023-02-07T03:24:12.008Z,699.00
2023-02-07T03:25:11.956Z,701.00
2023-02-07T03:26:11.921Z,704.00
2023-02-07T03:27:11.882Z,674.00
2023-02-07T03:28:11.908Z,637.00
2023-02-07T03:29:11.807Z,629.00
2023-02-07T03:30:11.761Z,631.00
2023-02-07T03:31:11.749Z,635.00
2023-02-07T03:32:11.683Z,656.00
2023-02-07T03:33:11.770Z,660.00
2023-02-07T03:34:11.634Z,647.00
2023-02-07T03:35:11.599Z,621.00
2023-02-07T03:36:11.571Z,620.00
2023-02-07T03:37:11.537Z,617.00
2023-02-07T03:38:11.497Z,624.00
2023-02-07T03:39:11.464Z,630.00
2023-02-07T03:40:11.439Z,635.00
2023-02-07T03:41:11.398Z,647.00
2023-02-07T03:42:11.371Z,653.00
2023-02-07T03:43:11.359Z,622.00
2023-02-07T03:44:11.311Z,604.00
2023-02-07T03:45:11.279Z,603.00
2023-02-07T03:46:11.272Z,593.00
2023-02-07T03:47:11.202Z,602.00
2023-02-07T03:48:11.170Z,633.00
2023-02-07T03:49:11.140Z,638.00
2023-02-07T03:50:11.117Z,649.00
2023-02-07T03:51:11.075Z,621.00
2023-02-07T03:52:11.063Z,616.00
2023-02-07T03:53:11.008Z,592.00
2023-02-07T03:54:10.975Z,607.00
2023-02-07T03:55:10.953Z,597.00
2023-02-07T03:56:10.913Z,613.00
2023-02-07T03:57:10.901Z,627.00
2023-02-07T03:58:10.867Z,629.00
2023-02-07T03:59:10.862Z,630.00
2023-02-07T04:00:10.855Z,599.00
2023-02-07T04:01:10.821Z,593.00
2023-02-07T04:02:10.788Z,579.00
2023-02-07T04:03:10.730Z,577.00
2023-02-07T04:04:10.702Z,590.00
2023-02-07T04:05:10.668Z,609.00
2023-02-07T04:06:10.615Z,625.00
2023-02-07T04:07:10.584Z,630.00
2023-02-07T04:08:10.557Z,637.00
2023-02-07T04:09:11.887Z,620.00
2023-02-07T04:10:10.565Z,610.00
2023-02-07T04:11:10.476Z,581.00
2023-02-07T04:12:10.451Z,569.00
2023-02-07T04:13:10.425Z,591.00
2023-02-07T04:14:10.396Z,596.00
2023-02-07T04:15:10.358Z,617.00
2023-02-07T04:16:10.396Z,627.00
2023-02-07T04:17:10.299Z,630.00
2023-02-07T04:18:10.255Z,617.00
2023-02-07T04:19:10.241Z,598.00
2023-02-07T04:20:10.201Z,591.00
2023-02-07T04:21:10.172Z,586.00
2023-02-07T04:22:10.108Z,601.00
2023-02-07T04:23:10.072Z,625.00
2023-02-07T04:24:10.038Z,632.00
2023-02-07T04:25:10.024Z,639.00
2023-02-07T04:26:10.005Z,634.00
2023-02-07T04:27:09.965Z,613.00
2023-02-07T04:28:09.956Z,616.00
2023-02-07T04:29:09.906Z,606.00
2023-02-07T04:30:09.873Z,607.00
2023-02-07T04:31:09.845Z,632.00
2023-02-07T04:32:09.821Z,662.00
2023-02-07T04:33:09.816Z,671.00
2023-02-07T04:34:09.769Z,686.00
2023-02-07T04:35:09.769Z,736.00
2023-02-07T04:36:09.715Z,686.00
2023-02-07T04:37:09.684Z,664.00
2023-02-07T04:38:09.652Z,656.00
2023-02-07T04:39:09.624Z,658.00
2023-02-07T04:40:09.602Z,665.00
2023-02-07T04:41:09.577Z,674.00
2023-02-07T04:42:09.542Z,730.00
2023-02-07T04:43:09.514Z,715.00
2023-02-07T04:44:09.455Z,752.00
2023-02-07T04:45:09.430Z,685.00
2023-02-07T04:46:09.421Z,697.00
2023-02-07T04:47:09.370Z,669.00
2023-02-07T04:48:10.250Z,642.00
2023-02-07T04:49:09.314Z,653.00
2023-02-07T04:50:09.254Z,663.00
2023-02-07T04:51:09.215Z,698.00
2023-02-07T04:52:09.198Z,653.00
2023-02-07T04:53:09.159Z,695.00
2023-02-07T04:54:09.129Z,658.00
2023-02-07T04:55:09.105Z,637.00
2023-02-07T04:56:09.054Z,630.00
2023-02-07T04:57:09.065Z,632.00
2023-02-07T04:58:08.999Z,619.00
2023-02-07T04:59:08.963Z,654.00
2023-02-07T05:00:08.933Z,653.00
2023-02-07T05:01:08.968Z,649.00
2023-02-07T05:02:08.875Z,676.00
2023-02-07T05:03:08.845Z,656.00
2023-02-07T05:04:08.876Z,621.00
2023-02-07T05:05:08.776Z,628.00
2023-02-07T05:06:08.731Z,623.00
2023-02-07T05:07:08.710Z,629.00
2023-02-07T05:08:08.673Z,641.00
2023-02-07T05:09:08.633Z,653.00
2023-02-07T05:10:08.620Z,641.00
2023-02-07T05:11:08.577Z,666.00
2023-02-07T05:12:08.541Z,630.00
2023-02-07T05:13:08.518Z,635.00
2023-02-07T05:14:08.478Z,623.00
2023-02-07T05:15:08.453Z,633.00
2023-02-07T05:16:08.418Z,652.00
2023-02-07T05:17:08.379Z,664.00
2023-02-07T05:18:08.372Z,687.00
2023-02-07T05:19:08.320Z,662.00
2023-02-07T05:20:08.289Z,692.00
2023-02-07T05:21:08.251Z,661.00
2023-02-07T05:22:08.228Z,654.00
2023-02-07T05:23:08.195Z,633.00
2023-02-07T05:24:08.160Z,620.00
2023-02-07T05:25:08.122Z,644.00
2023-02-07T05:26:08.084Z,650.00
2023-02-07T05:27:08.061Z,679.00
2023-02-07T05:28:08.057Z,665.00
2023-02-07T05:29:07.985Z,661.00
2023-02-07T05:30:07.970Z,649.00
2023-02-07T05:31:08.033Z,637.00
2023-02-07T05:32:07.917Z,646.00
2023-02-07T05:33:07.891Z,636.00
2023-02-07T05:34:07.862Z,646.00
2023-02-07T05:35:09.261Z,659.00
2023-02-07T05:36:07.799Z,690.00
2023-02-07T05:45:08.249Z,683.00
2023-02-07T06:22:11.263Z,608.00
